Startpagina
METAR-TAF:

METAR-TAF

Vliegvelden :

Vliegbasis Kleine-Brogel

Peer, België

breedte: 51-10N, lengte: 005-28E, hoogte: 55 m

Actueel weer

Dit bericht is 44 minuten geleden gemaakt, om 10:23 UTC
Wind 11 kt uit het zuidzuidwesten
Temperatuur 16°C
Vochtigheid 72%
Druk 1006 hPa
Zicht 10 km of meer

METAR: EBBL 161023Z AUTO 20011KT 9999 OVC026/// 16/11 Q1006 BLU

Tijdstip: 13:07 (11:07 UTC)


TAF: ontbreekt

Waarnemingen en weersverwachtingen van meer dan 4000 vliegvelden (METAR en TAF).

De beschikbare stations zijn de gele en rode punten op de kaart.

Ga met uw muis naar het station om de naam te zien.

Klik dan om waarnemingen en weersverwachtingen te zien.

kaart wijzigen: klik op de groene knoppen met een zwart kruis om in te zoomen, op de groene knop met een streepje om uit te zoomen of op de groene pijlen voor aangrenzende kaarten.


METAR-TAF: